Peru, Nebraska
Current Conditions -  °F | °C
As of 10:15 AM on Wednesday 22 Oct 2014 (Local Time) from KAFK Reporting Station
Clear Clear  
Wind Chill: 60°   Ceiling: Unl
Heat Index: 60°   Visibility: 10mi
Dew Point: 43°   Wind: 14mph
Humidity: 55%   Direction: 160°SSE
Pressure: 30.13"   Gusts: 20mph
Location:  40.47°N, 95.73°W
Report Text: KAFK 221515Z AUTO 16012G17KT 10SM CLR 15/06 A3013 RMK AO2 T01540063
Loading
Personal Weather Stations






























Interactive Weather Map
Tropical Storm Tracking
New forecast layout! Learn more

10-Day Weather Forecast

Advertisements
Track Severe Weather on mobile